Nearby METAR Reports

 

KCOS - Colorado Springs, Colorado, USA
Distance from station: S 6mi, 9km
Updated: Tue, 22-Aug-2017 1:54am MDT
Mostly cloudy
Mostly cloudy
 Wind from calm
Wind: Calm
Temperature: 63°F , 17°C
Dew Point: 54°F , 12°C
Humidity: 73%
Barometer: 30.37 inHg , 1028.4 hPa
Clouds: Mostly cloudy
Visibility: 10 miles , 16 km
Cloud details: Partly cloudy 3800 ft
Mostly cloudy 22000 ft
2017/08/22 07:54 KCOS 220754Z 00000KT 10SM SCT038 BKN220 17/12 A3037 RMK AO2 SLP192 T01670117
KAFF - Usaf Academy/Cos, Colorado, USA
Distance from station: NW 7mi, 12km
Updated: Tue, 22-Aug-2017 1:58am MDT
Clear
Clear
 Wind from N
Wind: N 7 mph , 11 km/h
Temperature: 55°F , 13°C
Dew Point: 46°F , 8°C
Humidity: 72%
Barometer: 30.38 inHg , 1028.8 hPa
Clouds: Clear
Visibility: 10 miles , 16 km
2017/08/22 07:58 KAFF 220758Z AUTO 36006KT 10SM CLR 13/08 A3038 RMK AO2 SLP199 T01260077
 
KFLY - Co Spngs Meadow, Colorado, USA
Distance from station: ENE 8mi, 13km
Updated: Tue, 22-Aug-2017 2:55am MDT
Clear
Clear
 Wind from W
Wind: W 7 mph , 11 km/h
Temperature: 57°F , 14°C
Dew Point: 52°F , 11°C
Humidity: 82%
Barometer: 30.41 inHg , 1029.8 hPa
Clouds: Clear
Visibility: 10 miles , 16 km
2017/08/22 08:55 KFLY 220855Z AUTO 28006KT 10SM CLR 14/11 A3041 RMK AO2 T01370113
KFCS - Fort Carson, Colorado, USA
Distance from station: S 17mi, 27km
Updated: Tue, 22-Aug-2017 1:58am MDT
Mostly cloudy
Mostly cloudy
 Wind from N
Wind: N 7 mph , 11 km/h
Temperature: 63°F , 17°C
Dew Point: 50°F , 10°C
Humidity: 64%
Barometer: 30.34 inHg , 1027.4 hPa
Clouds: Mostly cloudy
Visibility: 10 miles , 16 km
Cloud details: Partly cloudy 3900 ft
Mostly cloudy 24000 ft
2017/08/22 07:58 KFCS 220758Z AUTO 36006KT 10SM SCT039 BKN240 17/10 A3034 RMK AO2 SLP214 T01670100
 
KMNH - Monument/Elbert, Colorado, USA
Distance from station: N 22mi, 35km
Updated: Tue, 22-Aug-2017 2:50am MDT
Clear
Clear
 Wind from SW
Wind: SW 3 mph , 6 km/h
Temperature: 50°F , 10°C
Dew Point: 48°F , 9°C
Humidity: 94%
Barometer: 30.42 inHg , 1030.1 hPa
Clouds: Clear
Visibility: 10 miles , 16 km
2017/08/22 08:50 KMNH 220850Z AUTO 23003KT 10SM CLR 10/09 A3042 RMK AO2
K1V6 - Canon City, Colorado, USA
Distance from station: SSW 39mi, 62km
Updated: Tue, 16-May-2017 7:35am MDT
NOT Current
Clear
Clear
 Wind from W
Wind: W 3 mph , 6 km/h
Temperature: 63°F , 17°C
Dew Point: 28°F , -2°C
Humidity: 27%
Barometer: 29.76 inHg , 1007.8 hPa
Clouds: Clear
Visibility: 10 miles , 16 km
2017/05/16 13:35 K1V6 161335Z AUTO 26003KT 10SM CLR 17/M02 A2976 RMK AO2
 
KPUB - Pueblo, Colorado, USA
Distance from station: SSE 44mi, 71km
Updated: Tue, 22-Aug-2017 2:53am MDT
Clear
Clear
 Wind from NE
Wind: NE 6 mph , 9 km/h
Temperature: 66°F , 19°C
Dew Point: 52°F , 11°C
Humidity: 60%
Barometer: 30.25 inHg , 1024.4 hPa
Clouds: Clear
Visibility: 10 miles , 16 km
2017/08/22 08:53 KPUB 220853Z AUTO 05005KT 10SM CLR 19/11 A3025 RMK AO2 SLP174 T01890106 50006
KAPA - Denver/Arapahoe, Colorado, USA
Distance from station: N 47mi, 75km
Updated: Tue, 22-Aug-2017 2:53am MDT
Clear
Clear
 Wind from S
Wind: S 3 mph , 6 km/h
Temperature: 59°F , 15°C
Dew Point: 52°F , 11°C
Humidity: 77%
Barometer: 30.34 inHg , 1027.4 hPa
Clouds: Clear
Visibility: 10 miles , 16 km
2017/08/22 08:53 KAPA 220853Z 17003KT 10SM CLR 15/11 A3034 RMK AO2 SLP203 T01500111 53004